Pilot Rock, Oregon
Current Conditions -  °F | °C
As of 5:53 PM on Wednesday 26 Nov 2014 (Local Time) from KPDT Reporting Station
Clear Clear  
Wind Chill: 11°   Ceiling: Unl
Heat Index: 11°   Visibility: 10mi
Dew Point:   Wind: 7mph
Humidity: 74%   Direction: 140°SE
Pressure: 30.06"   Gusts: NA
Location:  45.48°N, 118.83°W
Report Text: KPDT 270153Z 14006KT 10SM CLR 11/06 A3006 RMK AO2 SLP174 T01060061
Loading
Personal Weather Stations






























Interactive Weather Map New forecast layout! Learn more

10-Day Weather Forecast

Advertisements
Track Severe Weather on mobile